Αρχική σελίδα
METAR-TAF:

METAR-TAF

Αεροδρόμια :

Βερμούδες, Βερμούδες

γεωγραφικό πλάτος: 32-22N, γεωγραφικό μήκος: 064-41W, υψόμετρο: 6 μ

Παρών καιρός

Η αναφορά έγινε 27 λεπτά πριν, στις 07:55 UTC
Άνεμος 14 kt από ΝΔ
Θερμοκρασία 26°C
Υγρασία 84%
Πίεση 1022 hPa
Ορατότητα 10 χλμ και άνω
Διάσπαρτα νέφη σε ύψος 1600 πόδια

METAR: TXKF 250755Z 22014KT 9999 SCT016 26/23 Q1022

Χρόνος: 05:22 (08:22 UTC)

Πρόγνωση Καιρού

Η αναφορά έγινε 2 ώρες και 44 λεπτά πριν, στις 05:38 UTC
Η πρόγνωση ισχύει από τις 25 στις 06 UTC έως τις 26 στις 06 UTC
Άνεμος 15 kt από Ν/ΝΔ
Ορατότητα 10 χλμ και άνω
Λίγα νέφη σε ύψος 1500 πόδια
Διάσπαρτα νέφη σε ύψος 30000 πόδια
Πιθανότητα 30% :
Προσωρινά
από 26 στις 03 UTC έως τις 26 στις 06 UTC
Άνεμος 15 kt από Δ/ΝΔ
Αρκετά νέφη σε ύψος 1300 πόδια
Όμβροι σε κοντινή απόσταση

TAF: TXKF 250538Z 2506/2606 21015KT 9999 FEW015 SCT300 PROB30 TEMPO 2603/2606 24015KT VCSH BKN013

Μετεωρολογικές αναφορές και προγνώσεις για περισσότερα από 4000 αεροδρόμια (δελτία METAR και TAF).

Οι διαθέσιμοι σταθμοί απεικονίζονται στο χάρτη με κίτρινες και κόκκινες κουκκίδες.

Μετακινήστε το ποντίκι πάνω από τις κουκκίδες για να δείτε το όνομα του σταθμού.

Στη συνέχεια, κάντε κλικ για να δείτε τις μετεωρολογικές αναφορές και τις προγνώσεις καιρού.

Για να αλλάξετε το χάρτη: κάντε κλικ στα πράσινα κουμπιά με τον μαύρο σταυρό για να ζουμάρετε, στο πράσινο κουμπί με την παύλα για να αφαιρέσετε το ζουμ ή στα πράσινα βέλη για να αντιπαραβάλλετε χάρτες.


METAR-TAF: